sensor_id;sensor_type;location;lat;lon;timestamp;temperature;humidity
27567;DHT22;15006;48.584;9.186;2024-02-21T00:01:07;1.90;97.80
27567;DHT22;15006;48.584;9.186;2024-02-21T00:03:33;1.90;97.80
27567;DHT22;15006;48.584;9.186;2024-02-21T00:05:59;1.90;97.70
27567;DHT22;15006;48.584;9.186;2024-02-21T00:08:25;2.00;97.80
27567;DHT22;15006;48.584;9.186;2024-02-21T00:10:51;2.00;97.70
27567;DHT22;15006;48.584;9.186;2024-02-21T00:13:17;2.00;97.70
27567;DHT22;15006;48.584;9.186;2024-02-21T00:15:43;1.90;97.50
27567;DHT22;15006;48.584;9.186;2024-02-21T00:18:09;1.90;97.50
27567;DHT22;15006;48.584;9.186;2024-02-21T00:20:36;1.90;97.60
27567;DHT22;15006;48.584;9.186;2024-02-21T00:23:02;2.00;97.60
27567;DHT22;15006;48.584;9.186;2024-02-21T00:25:28;2.00;97.60
27567;DHT22;15006;48.584;9.186;2024-02-21T00:27:55;2.00;97.70
27567;DHT22;15006;48.584;9.186;2024-02-21T00:30:21;2.00;97.70
27567;DHT22;15006;48.584;9.186;2024-02-21T00:32:47;2.00;97.70
27567;DHT22;15006;48.584;9.186;2024-02-21T00:35:14;2.00;97.70
27567;DHT22;15006;48.584;9.186;2024-02-21T00:37:40;2.00;97.50
27567;DHT22;15006;48.584;9.186;2024-02-21T00:40:06;2.00;97.50
27567;DHT22;15006;48.584;9.186;2024-02-21T00:42:32;2.00;97.50
27567;DHT22;15006;48.584;9.186;2024-02-21T00:44:58;2.00;97.50
27567;DHT22;15006;48.584;9.186;2024-02-21T00:47:24;2.10;97.50
27567;DHT22;15006;48.584;9.186;2024-02-21T00:49:50;2.00;97.30
27567;DHT22;15006;48.584;9.186;2024-02-21T00:52:16;2.10;97.20
27567;DHT22;15006;48.584;9.186;2024-02-21T00:54:42;2.10;97.20
27567;DHT22;15006;48.584;9.186;2024-02-21T00:57:08;2.10;97.20
27567;DHT22;15006;48.584;9.186;2024-02-21T00:59:34;2.10;97.10
27567;DHT22;15006;48.584;9.186;2024-02-21T01:02:00;2.10;97.10
27567;DHT22;15006;48.584;9.186;2024-02-21T01:04:26;2.20;97.00
27567;DHT22;15006;48.584;9.186;2024-02-21T01:06:52;2.20;96.90
27567;DHT22;15006;48.584;9.186;2024-02-21T01:09:18;2.30;96.80
27567;DHT22;15006;48.584;9.186;2024-02-21T01:11:44;2.30;96.80
27567;DHT22;15006;48.584;9.186;2024-02-21T01:14:10;2.30;96.70
27567;DHT22;15006;48.584;9.186;2024-02-21T01:16:36;2.40;96.60
27567;DHT22;15006;48.584;9.186;2024-02-21T01:19:02;2.40;96.40
27567;DHT22;15006;48.584;9.186;2024-02-21T01:21:28;2.40;96.40
27567;DHT22;15006;48.584;9.186;2024-02-21T01:23:54;2.50;96.30
27567;DHT22;15006;48.584;9.186;2024-02-21T01:26:20;2.50;96.30
27567;DHT22;15006;48.584;9.186;2024-02-21T01:28:46;2.50;96.30
27567;DHT22;15006;48.584;9.186;2024-02-21T01:31:12;2.50;96.20
27567;DHT22;15006;48.584;9.186;2024-02-21T01:33:38;2.50;96.10
27567;DHT22;15006;48.584;9.186;2024-02-21T01:36:05;2.60;96.10
27567;DHT22;15006;48.584;9.186;2024-02-21T01:38:32;2.60;96.00
27567;DHT22;15006;48.584;9.186;2024-02-21T01:40:59;2.60;95.90
27567;DHT22;15006;48.584;9.186;2024-02-21T01:43:24;2.60;95.90
27567;DHT22;15006;48.584;9.186;2024-02-21T01:45:53;2.60;96.20
27567;DHT22;15006;48.584;9.186;2024-02-21T01:48:22;2.60;95.80
27567;DHT22;15006;48.584;9.186;2024-02-21T01:50:54;2.50;95.70
27567;DHT22;15006;48.584;9.186;2024-02-21T01:53:43;2.60;95.40
27567;DHT22;15006;48.584;9.186;2024-02-21T01:56:10;2.60;94.90
27567;DHT22;15006;48.584;9.186;2024-02-21T01:58:39;2.60;95.70
27567;DHT22;15006;48.584;9.186;2024-02-21T02:01:06;2.60;95.60
27567;DHT22;15006;48.584;9.186;2024-02-21T02:03:32;2.60;95.60
27567;DHT22;15006;48.584;9.186;2024-02-21T02:05:59;2.50;95.60
27567;DHT22;15006;48.584;9.186;2024-02-21T02:08:26;2.60;95.40
27567;DHT22;15006;48.584;9.186;2024-02-21T02:10:52;2.50;95.20
27567;DHT22;15006;48.584;9.186;2024-02-21T02:13:18;2.50;95.20
27567;DHT22;15006;48.584;9.186;2024-02-21T02:15:48;2.50;95.20
27567;DHT22;15006;48.584;9.186;2024-02-21T02:18:15;2.50;95.00
27567;DHT22;15006;48.584;9.186;2024-02-21T02:20:43;2.40;95.10
27567;DHT22;15006;48.584;9.186;2024-02-21T02:25:54;2.30;94.90
27567;DHT22;15006;48.584;9.186;2024-02-21T02:28:21;2.30;95.40
27567;DHT22;15006;48.584;9.186;2024-02-21T02:30:48;2.20;95.30
27567;DHT22;15006;48.584;9.186;2024-02-21T02:33:14;2.20;95.40
27567;DHT22;15006;48.584;9.186;2024-02-21T02:35:40;2.20;95.50
27567;DHT22;15006;48.584;9.186;2024-02-21T02:38:06;2.10;95.60
27567;DHT22;15006;48.584;9.186;2024-02-21T02:40:36;2.10;95.70
27567;DHT22;15006;48.584;9.186;2024-02-21T02:43:03;2.00;95.60
27567;DHT22;15006;48.584;9.186;2024-02-21T02:45:29;2.00;96.00
27567;DHT22;15006;48.584;9.186;2024-02-21T02:47:58;2.00;96.10
27567;DHT22;15006;48.584;9.186;2024-02-21T02:50:25;2.00;96.20
27567;DHT22;15006;48.584;9.186;2024-02-21T02:52:52;2.00;96.50
27567;DHT22;15006;48.584;9.186;2024-02-21T02:55:19;2.00;96.70
27567;DHT22;15006;48.584;9.186;2024-02-21T02:57:45;2.00;96.80
27567;DHT22;15006;48.584;9.186;2024-02-21T03:00:12;2.00;96.90
27567;DHT22;15006;48.584;9.186;2024-02-21T03:02:39;2.10;97.00
27567;DHT22;15006;48.584;9.186;2024-02-21T03:05:18;2.10;97.00
27567;DHT22;15006;48.584;9.186;2024-02-21T03:07:46;2.10;96.60
27567;DHT22;15006;48.584;9.186;2024-02-21T03:10:13;2.10;97.10
27567;DHT22;15006;48.584;9.186;2024-02-21T03:12:39;2.20;97.10
27567;DHT22;15006;48.584;9.186;2024-02-21T03:15:06;2.20;97.00
27567;DHT22;15006;48.584;9.186;2024-02-21T03:17:32;2.20;97.00
27567;DHT22;15006;48.584;9.186;2024-02-21T03:20:02;2.20;96.80
27567;DHT22;15006;48.584;9.186;2024-02-21T03:22:35;2.30;96.80
27567;DHT22;15006;48.584;9.186;2024-02-21T03:25:01;2.30;96.80
27567;DHT22;15006;48.584;9.186;2024-02-21T03:27:28;2.30;96.80
27567;DHT22;15006;48.584;9.186;2024-02-21T03:29:53;2.40;96.70
27567;DHT22;15006;48.584;9.186;2024-02-21T03:32:19;2.40;96.60
27567;DHT22;15006;48.584;9.186;2024-02-21T03:34:45;2.40;96.50
27567;DHT22;15006;48.584;9.186;2024-02-21T03:37:11;2.40;96.40
27567;DHT22;15006;48.584;9.186;2024-02-21T03:39:40;2.40;96.20
27567;DHT22;15006;48.584;9.186;2024-02-21T03:42:06;2.50;96.10
27567;DHT22;15006;48.584;9.186;2024-02-21T03:44:32;2.40;95.90
27567;DHT22;15006;48.584;9.186;2024-02-21T03:47:01;2.50;95.80
27567;DHT22;15006;48.584;9.186;2024-02-21T03:49:28;2.40;95.40
27567;DHT22;15006;48.584;9.186;2024-02-21T03:51:54;2.40;95.50
27567;DHT22;15006;48.584;9.186;2024-02-21T03:54:20;2.40;95.30
27567;DHT22;15006;48.584;9.186;2024-02-21T03:56:46;2.40;95.10
27567;DHT22;15006;48.584;9.186;2024-02-21T03:59:15;2.30;95.00
27567;DHT22;15006;48.584;9.186;2024-02-21T04:01:41;2.30;95.20
27567;DHT22;15006;48.584;9.186;2024-02-21T04:04:07;2.20;95.40
27567;DHT22;15006;48.584;9.186;2024-02-21T04:06:33;2.20;95.60
27567;DHT22;15006;48.584;9.186;2024-02-21T04:08:59;2.20;95.70
27567;DHT22;15006;48.584;9.186;2024-02-21T04:11:25;2.10;95.90
27567;DHT22;15006;48.584;9.186;2024-02-21T04:13:51;2.10;96.00
27567;DHT22;15006;48.584;9.186;2024-02-21T04:16:17;2.10;96.30
27567;DHT22;15006;48.584;9.186;2024-02-21T04:18:43;2.10;96.30
27567;DHT22;15006;48.584;9.186;2024-02-21T04:21:10;2.10;96.40
27567;DHT22;15006;48.584;9.186;2024-02-21T04:23:40;2.10;96.40
27567;DHT22;15006;48.584;9.186;2024-02-21T04:26:06;2.10;96.40
27567;DHT22;15006;48.584;9.186;2024-02-21T04:28:32;2.10;96.40
27567;DHT22;15006;48.584;9.186;2024-02-21T04:30:57;2.10;96.40
27567;DHT22;15006;48.584;9.186;2024-02-21T04:33:23;2.10;96.20
27567;DHT22;15006;48.584;9.186;2024-02-21T04:35:49;2.20;95.90
27567;DHT22;15006;48.584;9.186;2024-02-21T04:38:15;2.20;95.60
27567;DHT22;15006;48.584;9.186;2024-02-21T04:40:41;2.20;95.40
27567;DHT22;15006;48.584;9.186;2024-02-21T04:43:07;2.10;95.30
27567;DHT22;15006;48.584;9.186;2024-02-21T04:45:33;2.10;95.20
27567;DHT22;15006;48.584;9.186;2024-02-21T04:47:59;2.20;95.30
27567;DHT22;15006;48.584;9.186;2024-02-21T04:50:25;2.20;95.20
27567;DHT22;15006;48.584;9.186;2024-02-21T04:52:51;2.20;95.10
27567;DHT22;15006;48.584;9.186;2024-02-21T04:55:17;2.20;95.10
27567;DHT22;15006;48.584;9.186;2024-02-21T04:57:43;2.10;94.90
27567;DHT22;15006;48.584;9.186;2024-02-21T05:00:09;2.10;94.80
27567;DHT22;15006;48.584;9.186;2024-02-21T05:02:35;2.10;94.70
27567;DHT22;15006;48.584;9.186;2024-02-21T05:05:01;2.10;94.60
27567;DHT22;15006;48.584;9.186;2024-02-21T05:07:28;2.00;94.50
27567;DHT22;15006;48.584;9.186;2024-02-21T05:09:54;1.90;94.60
27567;DHT22;15006;48.584;9.186;2024-02-21T05:12:20;1.90;94.50
27567;DHT22;15006;48.584;9.186;2024-02-21T05:14:47;1.80;94.50
27567;DHT22;15006;48.584;9.186;2024-02-21T05:17:13;1.80;94.20
27567;DHT22;15006;48.584;9.186;2024-02-21T05:19:39;1.70;94.10
27567;DHT22;15006;48.584;9.186;2024-02-21T05:22:05;1.60;94.10
27567;DHT22;15006;48.584;9.186;2024-02-21T05:24:31;1.50;94.00
27567;DHT22;15006;48.584;9.186;2024-02-21T05:26:57;1.50;94.00
27567;DHT22;15006;48.584;9.186;2024-02-21T05:29:23;1.40;94.10
27567;DHT22;15006;48.584;9.186;2024-02-21T05:34:19;1.30;94.10
27567;DHT22;15006;48.584;9.186;2024-02-21T05:36:45;1.20;94.20
27567;DHT22;15006;48.584;9.186;2024-02-21T05:39:12;1.10;94.30
27567;DHT22;15006;48.584;9.186;2024-02-21T05:41:39;1.10;94.30
27567;DHT22;15006;48.584;9.186;2024-02-21T05:44:05;1.00;94.20
27567;DHT22;15006;48.584;9.186;2024-02-21T05:46:30;1.00;94.20
27567;DHT22;15006;48.584;9.186;2024-02-21T05:48:56;0.90;94.20
27567;DHT22;15006;48.584;9.186;2024-02-21T05:51:22;0.80;94.20
27567;DHT22;15006;48.584;9.186;2024-02-21T05:53:48;0.80;94.30
27567;DHT22;15006;48.584;9.186;2024-02-21T05:56:14;0.70;94.40
27567;DHT22;15006;48.584;9.186;2024-02-21T05:58:41;0.70;94.40
27567;DHT22;15006;48.584;9.186;2024-02-21T06:01:07;0.70;94.60
27567;DHT22;15006;48.584;9.186;2024-02-21T06:03:34;0.60;94.60
27567;DHT22;15006;48.584;9.186;2024-02-21T06:06:00;0.50;94.70
27567;DHT22;15006;48.584;9.186;2024-02-21T06:08:27;0.50;94.80
27567;DHT22;15006;48.584;9.186;2024-02-21T06:10:53;0.50;94.90
27567;DHT22;15006;48.584;9.186;2024-02-21T06:13:23;0.40;95.00
27567;DHT22;15006;48.584;9.186;2024-02-21T06:15:50;0.40;95.10
27567;DHT22;15006;48.584;9.186;2024-02-21T06:18:20;0.40;95.40
27567;DHT22;15006;48.584;9.186;2024-02-21T06:20:47;0.40;95.60
27567;DHT22;15006;48.584;9.186;2024-02-21T06:23:15;0.40;96.10
27567;DHT22;15006;48.584;9.186;2024-02-21T06:25:42;0.40;96.10
27567;DHT22;15006;48.584;9.186;2024-02-21T06:28:08;0.50;96.20
27567;DHT22;15006;48.584;9.186;2024-02-21T06:30:34;0.30;96.00
27567;DHT22;15006;48.584;9.186;2024-02-21T06:33:01;0.30;95.90
27567;DHT22;15006;48.584;9.186;2024-02-21T06:35:28;0.40;96.00
27567;DHT22;15006;48.584;9.186;2024-02-21T06:37:54;0.40;96.10
27567;DHT22;15006;48.584;9.186;2024-02-21T06:40:22;0.30;96.20
27567;DHT22;15006;48.584;9.186;2024-02-21T06:42:49;0.30;96.50
27567;DHT22;15006;48.584;9.186;2024-02-21T06:45:16;0.30;97.00
27567;DHT22;15006;48.584;9.186;2024-02-21T06:47:42;0.30;97.50
27567;DHT22;15006;48.584;9.186;2024-02-21T06:50:09;0.40;97.90
27567;DHT22;15006;48.584;9.186;2024-02-21T06:52:38;0.40;98.20
27567;DHT22;15006;48.584;9.186;2024-02-21T06:55:04;0.50;98.40
27567;DHT22;15006;48.584;9.186;2024-02-21T06:57:30;0.60;98.50
27567;DHT22;15006;48.584;9.186;2024-02-21T06:59:56;0.60;98.50
27567;DHT22;15006;48.584;9.186;2024-02-21T07:02:22;0.70;98.60
27567;DHT22;15006;48.584;9.186;2024-02-21T07:04:48;0.80;98.80
27567;DHT22;15006;48.584;9.186;2024-02-21T07:07:15;0.80;98.90
27567;DHT22;15006;48.584;9.186;2024-02-21T07:09:41;0.90;98.90
27567;DHT22;15006;48.584;9.186;2024-02-21T07:12:07;1.00;98.90
27567;DHT22;15006;48.584;9.186;2024-02-21T07:14:33;1.00;98.90
27567;DHT22;15006;48.584;9.186;2024-02-21T07:16:59;1.10;98.90
27567;DHT22;15006;48.584;9.186;2024-02-21T07:19:25;1.20;98.90
27567;DHT22;15006;48.584;9.186;2024-02-21T07:21:51;1.20;99.00
27567;DHT22;15006;48.584;9.186;2024-02-21T07:24:17;1.30;99.00
27567;DHT22;15006;48.584;9.186;2024-02-21T07:26:43;1.30;99.00
27567;DHT22;15006;48.584;9.186;2024-02-21T07:29:10;1.40;99.10
27567;DHT22;15006;48.584;9.186;2024-02-21T07:31:41;1.50;99.10
27567;DHT22;15006;48.584;9.186;2024-02-21T07:34:07;1.60;98.80
27567;DHT22;15006;48.584;9.186;2024-02-21T07:36:33;1.70;97.80
27567;DHT22;15006;48.584;9.186;2024-02-21T07:38:59;1.80;99.00
27567;DHT22;15006;48.584;9.186;2024-02-21T07:41:26;1.90;98.90
27567;DHT22;15006;48.584;9.186;2024-02-21T07:43:52;2.00;98.70
27567;DHT22;15006;48.584;9.186;2024-02-21T07:46:18;2.10;98.60
27567;DHT22;15006;48.584;9.186;2024-02-21T07:48:48;2.20;98.70
27567;DHT22;15006;48.584;9.186;2024-02-21T07:51:14;2.30;98.20
27567;DHT22;15006;48.584;9.186;2024-02-21T07:53:42;2.40;98.50
27567;DHT22;15006;48.584;9.186;2024-02-21T07:56:11;2.50;98.40
27567;DHT22;15006;48.584;9.186;2024-02-21T07:58:37;2.60;98.20
27567;DHT22;15006;48.584;9.186;2024-02-21T08:01:03;2.60;97.90
27567;DHT22;15006;48.584;9.186;2024-02-21T08:03:29;2.70;97.60
27567;DHT22;15006;48.584;9.186;2024-02-21T08:05:55;2.80;97.10
27567;DHT22;15006;48.584;9.186;2024-02-21T08:08:21;2.90;96.60
27567;DHT22;15006;48.584;9.186;2024-02-21T08:10:50;2.90;96.90
27567;DHT22;15006;48.584;9.186;2024-02-21T08:13:17;3.00;95.90
27567;DHT22;15006;48.584;9.186;2024-02-21T08:15:43;3.00;96.40
27567;DHT22;15006;48.584;9.186;2024-02-21T08:18:08;3.10;95.90
27567;DHT22;15006;48.584;9.186;2024-02-21T08:20:35;3.10;95.70
27567;DHT22;15006;48.584;9.186;2024-02-21T08:23:01;3.20;95.50
27567;DHT22;15006;48.584;9.186;2024-02-21T08:25:27;3.20;95.30
27567;DHT22;15006;48.584;9.186;2024-02-21T08:27:58;3.30;95.00
27567;DHT22;15006;48.584;9.186;2024-02-21T08:30:25;3.20;94.80
27567;DHT22;15006;48.584;9.186;2024-02-21T08:32:51;3.30;95.00
27567;DHT22;15006;48.584;9.186;2024-02-21T08:35:17;3.40;95.20
27567;DHT22;15006;48.584;9.186;2024-02-21T08:37:48;3.40;94.70
27567;DHT22;15006;48.584;9.186;2024-02-21T08:40:14;3.50;94.60
27567;DHT22;15006;48.584;9.186;2024-02-21T08:42:43;3.50;94.10
27567;DHT22;15006;48.584;9.186;2024-02-21T08:45:10;3.60;94.80
27567;DHT22;15006;48.584;9.186;2024-02-21T08:47:39;3.70;94.60
27567;DHT22;15006;48.584;9.186;2024-02-21T08:50:06;3.80;94.10
27567;DHT22;15006;48.584;9.186;2024-02-21T08:52:33;3.80;93.70
27567;DHT22;15006;48.584;9.186;2024-02-21T08:54:59;3.90;94.40
27567;DHT22;15006;48.584;9.186;2024-02-21T08:57:25;4.00;93.70
27567;DHT22;15006;48.584;9.186;2024-02-21T08:59:51;4.10;93.90
27567;DHT22;15006;48.584;9.186;2024-02-21T09:02:16;4.10;94.10
27567;DHT22;15006;48.584;9.186;2024-02-21T09:04:42;4.20;94.10
27567;DHT22;15006;48.584;9.186;2024-02-21T09:07:10;4.30;94.10
27567;DHT22;15006;48.584;9.186;2024-02-21T09:09:36;4.40;94.20
27567;DHT22;15006;48.584;9.186;2024-02-21T09:12:07;4.60;94.60
27567;DHT22;15006;48.584;9.186;2024-02-21T09:14:35;4.60;93.90
27567;DHT22;15006;48.584;9.186;2024-02-21T09:17:03;4.70;93.70
27567;DHT22;15006;48.584;9.186;2024-02-21T09:19:29;4.80;93.30
27567;DHT22;15006;48.584;9.186;2024-02-21T09:21:55;4.90;93.40
27567;DHT22;15006;48.584;9.186;2024-02-21T09:24:21;4.90;93.40
27567;DHT22;15006;48.584;9.186;2024-02-21T09:26:47;5.00;92.30
27567;DHT22;15006;48.584;9.186;2024-02-21T09:29:13;5.10;92.70
27567;DHT22;15006;48.584;9.186;2024-02-21T09:31:41;5.20;91.70
27567;DHT22;15006;48.584;9.186;2024-02-21T09:34:07;5.20;91.20
27567;DHT22;15006;48.584;9.186;2024-02-21T09:36:33;5.30;91.40
27567;DHT22;15006;48.584;9.186;2024-02-21T09:38:59;5.40;90.50
27567;DHT22;15006;48.584;9.186;2024-02-21T09:41:26;5.40;91.00
27567;DHT22;15006;48.584;9.186;2024-02-21T09:43:55;5.40;91.00
27567;DHT22;15006;48.584;9.186;2024-02-21T09:46:27;5.50;90.70
27567;DHT22;15006;48.584;9.186;2024-02-21T09:49:21;5.60;91.20
27567;DHT22;15006;48.584;9.186;2024-02-21T09:51:51;5.70;91.10
27567;DHT22;15006;48.584;9.186;2024-02-21T09:54:19;5.80;91.10
27567;DHT22;15006;48.584;9.186;2024-02-21T09:56:47;5.80;91.30
27567;DHT22;15006;48.584;9.186;2024-02-21T09:59:15;5.90;91.00
27567;DHT22;15006;48.584;9.186;2024-02-21T10:01:43;6.00;90.10
27567;DHT22;15006;48.584;9.186;2024-02-21T10:04:10;6.10;89.70
27567;DHT22;15006;48.584;9.186;2024-02-21T10:06:36;6.10;89.50
27567;DHT22;15006;48.584;9.186;2024-02-21T10:09:06;6.30;88.90
27567;DHT22;15006;48.584;9.186;2024-02-21T10:11:32;6.40;88.20
27567;DHT22;15006;48.584;9.186;2024-02-21T10:14:08;6.50;89.30
27567;DHT22;15006;48.584;9.186;2024-02-21T10:16:34;6.60;87.50
27567;DHT22;15006;48.584;9.186;2024-02-21T10:19:00;6.70;87.90
27567;DHT22;15006;48.584;9.186;2024-02-21T10:21:26;6.80;88.90
27567;DHT22;15006;48.584;9.186;2024-02-21T10:23:52;6.90;86.80
27567;DHT22;15006;48.584;9.186;2024-02-21T10:26:19;7.00;85.90
27567;DHT22;15006;48.584;9.186;2024-02-21T10:28:46;7.10;86.60
27567;DHT22;15006;48.584;9.186;2024-02-21T10:31:24;7.30;87.60
27567;DHT22;15006;48.584;9.186;2024-02-21T10:33:59;7.40;84.70
27567;DHT22;15006;48.584;9.186;2024-02-21T10:36:29;7.40;84.40
27567;DHT22;15006;48.584;9.186;2024-02-21T10:38:55;7.50;84.00
27567;DHT22;15006;48.584;9.186;2024-02-21T10:41:22;7.60;83.80
27567;DHT22;15006;48.584;9.186;2024-02-21T10:43:50;7.70;82.70
27567;DHT22;15006;48.584;9.186;2024-02-21T10:46:22;7.80;83.50
27567;DHT22;15006;48.584;9.186;2024-02-21T10:49:14;7.90;84.20
27567;DHT22;15006;48.584;9.186;2024-02-21T10:51:45;8.00;79.30
27567;DHT22;15006;48.584;9.186;2024-02-21T10:57:13;8.40;76.30
27567;DHT22;15006;48.584;9.186;2024-02-21T10:59:40;8.60;80.60
27567;DHT22;15006;48.584;9.186;2024-02-21T11:02:06;8.80;81.10
27567;DHT22;15006;48.584;9.186;2024-02-21T11:04:33;8.90;78.70
27567;DHT22;15006;48.584;9.186;2024-02-21T11:07:06;9.10;80.20
27567;DHT22;15006;48.584;9.186;2024-02-21T11:09:33;9.30;78.50
27567;DHT22;15006;48.584;9.186;2024-02-21T11:12:04;9.40;79.10
27567;DHT22;15006;48.584;9.186;2024-02-21T11:14:31;9.60;77.00
27567;DHT22;15006;48.584;9.186;2024-02-21T11:16:58;9.70;77.50
27567;DHT22;15006;48.584;9.186;2024-02-21T11:19:26;9.80;77.60
27567;DHT22;15006;48.584;9.186;2024-02-21T11:21:53;9.90;78.50
27567;DHT22;15006;48.584;9.186;2024-02-21T11:24:27;10.00;75.70
27567;DHT22;15006;48.584;9.186;2024-02-21T11:26:54;10.00;73.20
27567;DHT22;15006;48.584;9.186;2024-02-21T11:29:24;10.10;76.50
27567;DHT22;15006;48.584;9.186;2024-02-21T11:31:51;10.20;76.10
27567;DHT22;15006;48.584;9.186;2024-02-21T11:34:18;10.20;74.80
27567;DHT22;15006;48.584;9.186;2024-02-21T11:36:52;10.20;74.40
27567;DHT22;15006;48.584;9.186;2024-02-21T11:39:23;10.30;71.30
27567;DHT22;15006;48.584;9.186;2024-02-21T11:42:07;10.30;71.80
27567;DHT22;15006;48.584;9.186;2024-02-21T11:44:37;10.30;69.50
27567;DHT22;15006;48.584;9.186;2024-02-21T11:47:04;10.30;73.40
27567;DHT22;15006;48.584;9.186;2024-02-21T11:49:31;10.30;71.80
27567;DHT22;15006;48.584;9.186;2024-02-21T11:52:02;10.30;73.00
27567;DHT22;15006;48.584;9.186;2024-02-21T11:54:33;10.30;72.10
27567;DHT22;15006;48.584;9.186;2024-02-21T11:57:00;10.30;71.80
27567;DHT22;15006;48.584;9.186;2024-02-21T11:59:30;10.40;73.50
27567;DHT22;15006;48.584;9.186;2024-02-21T12:01:58;10.30;69.60
27567;DHT22;15006;48.584;9.186;2024-02-21T12:04:25;10.30;67.70
27567;DHT22;15006;48.584;9.186;2024-02-21T12:06:53;10.30;69.50
27567;DHT22;15006;48.584;9.186;2024-02-21T12:09:20;10.30;70.80
27567;DHT22;15006;48.584;9.186;2024-02-21T12:12:00;10.20;69.50
27567;DHT22;15006;48.584;9.186;2024-02-21T12:14:29;10.20;69.10
27567;DHT22;15006;48.584;9.186;2024-02-21T12:16:56;10.20;70.10
27567;DHT22;15006;48.584;9.186;2024-02-21T12:19:22;10.20;69.60
27567;DHT22;15006;48.584;9.186;2024-02-21T12:21:49;10.20;68.90
27567;DHT22;15006;48.584;9.186;2024-02-21T12:24:24;10.30;69.00
27567;DHT22;15006;48.584;9.186;2024-02-21T12:26:52;10.30;65.70
27567;DHT22;15006;48.584;9.186;2024-02-21T12:29:19;10.40;68.40
27567;DHT22;15006;48.584;9.186;2024-02-21T12:31:46;10.50;67.20
27567;DHT22;15006;48.584;9.186;2024-02-21T12:34:12;10.50;67.80
27567;DHT22;15006;48.584;9.186;2024-02-21T12:36:45;10.60;69.50
27567;DHT22;15006;48.584;9.186;2024-02-21T12:39:15;10.70;66.30
27567;DHT22;15006;48.584;9.186;2024-02-21T12:41:42;10.80;69.40
27567;DHT22;15006;48.584;9.186;2024-02-21T12:44:10;10.90;67.30
27567;DHT22;15006;48.584;9.186;2024-02-21T12:46:39;11.00;68.60
27567;DHT22;15006;48.584;9.186;2024-02-21T12:49:08;11.00;66.80
27567;DHT22;15006;48.584;9.186;2024-02-21T12:51:34;11.10;67.50
27567;DHT22;15006;48.584;9.186;2024-02-21T12:54:00;11.20;66.00
27567;DHT22;15006;48.584;9.186;2024-02-21T12:56:28;11.20;66.20
27567;DHT22;15006;48.584;9.186;2024-02-21T12:58:57;11.30;67.10
27567;DHT22;15006;48.584;9.186;2024-02-21T13:01:23;11.30;67.00
27567;DHT22;15006;48.584;9.186;2024-02-21T13:03:49;11.30;67.30
27567;DHT22;15006;48.584;9.186;2024-02-21T13:06:15;11.40;67.20
27567;DHT22;15006;48.584;9.186;2024-02-21T13:08:41;11.40;65.50
27567;DHT22;15006;48.584;9.186;2024-02-21T13:11:07;11.50;64.60
27567;DHT22;15006;48.584;9.186;2024-02-21T13:13:33;11.50;63.90
27567;DHT22;15006;48.584;9.186;2024-02-21T13:15:59;11.50;64.10
27567;DHT22;15006;48.584;9.186;2024-02-21T13:18:25;11.40;63.30
27567;DHT22;15006;48.584;9.186;2024-02-21T13:20:51;11.30;64.40
27567;DHT22;15006;48.584;9.186;2024-02-21T13:23:17;11.30;62.50
27567;DHT22;15006;48.584;9.186;2024-02-21T13:25:43;11.30;62.40
27567;DHT22;15006;48.584;9.186;2024-02-21T13:28:12;11.30;62.50
27567;DHT22;15006;48.584;9.186;2024-02-21T13:30:39;11.30;63.20
27567;DHT22;15006;48.584;9.186;2024-02-21T13:33:06;11.20;61.60
27567;DHT22;15006;48.584;9.186;2024-02-21T13:35:32;11.30;63.50
27567;DHT22;15006;48.584;9.186;2024-02-21T13:37:58;11.20;63.20
27567;DHT22;15006;48.584;9.186;2024-02-21T13:40:24;11.30;63.80
27567;DHT22;15006;48.584;9.186;2024-02-21T13:42:51;11.30;63.70
27567;DHT22;15006;48.584;9.186;2024-02-21T13:45:17;11.30;63.20
27567;DHT22;15006;48.584;9.186;2024-02-21T13:47:43;11.30;62.80
27567;DHT22;15006;48.584;9.186;2024-02-21T13:50:09;11.30;62.70
27567;DHT22;15006;48.584;9.186;2024-02-21T13:52:36;11.30;63.50
27567;DHT22;15006;48.584;9.186;2024-02-21T13:55:02;11.40;64.60
27567;DHT22;15006;48.584;9.186;2024-02-21T13:57:28;11.40;65.20
27567;DHT22;15006;48.584;9.186;2024-02-21T13:59:54;11.40;63.00
27567;DHT22;15006;48.584;9.186;2024-02-21T14:02:20;11.40;63.20
27567;DHT22;15006;48.584;9.186;2024-02-21T14:04:47;11.30;62.10
27567;DHT22;15006;48.584;9.186;2024-02-21T14:07:13;11.40;62.40
27567;DHT22;15006;48.584;9.186;2024-02-21T14:09:39;11.30;63.20
27567;DHT22;15006;48.584;9.186;2024-02-21T14:12:05;11.30;64.90
27567;DHT22;15006;48.584;9.186;2024-02-21T14:14:35;11.30;63.50
27567;DHT22;15006;48.584;9.186;2024-02-21T14:17:02;11.30;64.10
27567;DHT22;15006;48.584;9.186;2024-02-21T14:19:30;11.30;65.40
27567;DHT22;15006;48.584;9.186;2024-02-21T14:21:56;11.30;64.10
27567;DHT22;15006;48.584;9.186;2024-02-21T14:24:23;11.30;63.60
27567;DHT22;15006;48.584;9.186;2024-02-21T14:26:49;11.20;64.90
27567;DHT22;15006;48.584;9.186;2024-02-21T14:29:16;11.20;64.80
27567;DHT22;15006;48.584;9.186;2024-02-21T14:31:42;11.20;66.10
27567;DHT22;15006;48.584;9.186;2024-02-21T14:34:08;11.20;65.80
27567;DHT22;15006;48.584;9.186;2024-02-21T14:36:34;11.20;65.20
27567;DHT22;15006;48.584;9.186;2024-02-21T14:39:00;11.20;64.70
27567;DHT22;15006;48.584;9.186;2024-02-21T14:41:26;11.20;65.30
27567;DHT22;15006;48.584;9.186;2024-02-21T14:43:53;11.20;66.20
27567;DHT22;15006;48.584;9.186;2024-02-21T14:46:19;11.20;65.90
27567;DHT22;15006;48.584;9.186;2024-02-21T14:48:45;11.10;65.30
27567;DHT22;15006;48.584;9.186;2024-02-21T14:51:11;11.10;64.50
27567;DHT22;15006;48.584;9.186;2024-02-21T14:53:37;11.10;65.10
27567;DHT22;15006;48.584;9.186;2024-02-21T14:56:03;11.00;65.80
27567;DHT22;15006;48.584;9.186;2024-02-21T14:58:30;11.00;65.80
27567;DHT22;15006;48.584;9.186;2024-02-21T15:00:56;11.00;66.10
27567;DHT22;15006;48.584;9.186;2024-02-21T15:03:22;10.90;66.00
27567;DHT22;15006;48.584;9.186;2024-02-21T15:05:48;10.90;66.20
27567;DHT22;15006;48.584;9.186;2024-02-21T15:08:14;10.80;66.70
27567;DHT22;15006;48.584;9.186;2024-02-21T15:10:43;10.80;66.40
27567;DHT22;15006;48.584;9.186;2024-02-21T15:13:09;10.70;65.80
27567;DHT22;15006;48.584;9.186;2024-02-21T15:15:34;10.70;66.70
27567;DHT22;15006;48.584;9.186;2024-02-21T15:18:02;10.60;66.80
27567;DHT22;15006;48.584;9.186;2024-02-21T15:20:28;10.60;67.10
27567;DHT22;15006;48.584;9.186;2024-02-21T15:22:54;10.50;67.70
27567;DHT22;15006;48.584;9.186;2024-02-21T15:25:20;10.50;67.90
27567;DHT22;15006;48.584;9.186;2024-02-21T15:27:47;10.40;68.50
27567;DHT22;15006;48.584;9.186;2024-02-21T15:30:13;10.20;69.30
27567;DHT22;15006;48.584;9.186;2024-02-21T15:32:40;10.20;69.70
27567;DHT22;15006;48.584;9.186;2024-02-21T15:35:10;10.10;69.30
27567;DHT22;15006;48.584;9.186;2024-02-21T15:37:36;10.00;70.00
27567;DHT22;15006;48.584;9.186;2024-02-21T15:40:04;10.00;70.90
27567;DHT22;15006;48.584;9.186;2024-02-21T15:42:32;9.90;71.90
27567;DHT22;15006;48.584;9.186;2024-02-21T15:44:58;9.90;71.80
27567;DHT22;15006;48.584;9.186;2024-02-21T15:47:27;9.90;71.80
27567;DHT22;15006;48.584;9.186;2024-02-21T15:49:53;9.80;72.30